ADDS METAR Data INFO
IDs: Format: Raw Decoded Include TAF

Data at: 1251 UTC 19 Oct 2017

KMSV 191156Z AUTO 01004KT 10SM CLR 04/03 A3023 RMK AO2 SLP244 T00390033 10056 20039 58006
KMSV 191056Z AUTO 00000KT 10SM CLR 04/04 A3024 RMK AO2 SLP245 T00390039
KMSV 190956Z AUTO 00000KT 10SM CLR 04/04 A3025 RMK AO2 SLP247 T00440039
KMSV 190856Z AUTO 03003KT 10SM CLR 05/04 A3025 RMK AO2 SLP247 T00500044 55004
KMSV 190756Z AUTO 00000KT 10SM CLR 06/04 A3025 RMK AO2 SLP247 T00560044
KMSV 190656Z AUTO 01004KT 10SM CLR 05/04 A3026 RMK AO2 SLP249 T00500044
KMSV 190556Z AUTO 00000KT 10SM CLR 06/05 A3027 RMK AO2 SLP252 T00560050 10133 20056 58007
KMSV 190456Z AUTO 00000KT 10SM CLR 07/06 A3028 RMK AO2 SLP255 T00670056 402000011
KMSV 190356Z AUTO 00000KT 10SM CLR 08/06 A3029 RMK AO2 SLP258 T00780061
KMSV 190256Z AUTO 01004KT 10SM CLR 08/06 A3029 RMK AO2 SLP261 T00780061 50000
KMSV 190156Z AUTO 00000KT 10SM CLR 09/07 A3030 RMK AO2 SLP266 T00890067
KMSV 190056Z AUTO 00000KT 10SM CLR 11/07 A3030 RMK AO2 SLP265 T01110072
KMSV 182356Z AUTO 19005KT 10SM CLR 13/07 A3029 RMK AO2 SLP264 T01330072 10200 20128 53009
KMSV 182256Z AUTO 24003KT 10SM CLR 17/06 A3028 RMK AO2 SLP258 T01670061
KMSV 182156Z AUTO 23003KT 10SM CLR 18/06 A3027 RMK AO2 SLP254 T01780061
KMSV 182056Z AUTO 24007KT 210V280 10SM CLR 19/07 A3026 RMK AO2 SLP250 T01940067 56010
KMSV 181956Z AUTO VRB05KT 10SM CLR 20/07 A3027 RMK AO2 SLP253 T02000067
KMSV 181856Z AUTO VRB04KT 10SM CLR 20/07 A3028 RMK AO2 SLP257 T02000072
KMSV 181756Z AUTO 27005KT 10SM CLR 19/08 A3029 RMK AO2 SLP262 T01890078 10189 20017 58014
KMSV 181656Z AUTO 25005KT 10SM CLR 18/07 A3031 RMK AO2 SLP268 T01780072
KMSV 181556Z AUTO VRB03KT 10SM CLR 16/07 A3033 RMK AO2 SLP277 T01610067
KMSV 181456Z AUTO 29007KT 10SM CLR 13/05 A3033 RMK AO2 SLP277 T01330050 50006
KMSV 181356Z AUTO 27005KT 10SM CLR 11/04 A3034 RMK AO2 SLP280 T01060039
KMSV 181256Z AUTO 00000KT 10SM FEW002 06/02 A3033 RMK AO2 SLP281 T00560022
KMSV 181156Z AUTO 00000KT 10SM CLR 02/00 A3031 RMK AO2 SLP275 T00170000 10044 20011 53014 FZRANO
KMSV 181056Z AUTO 00000KT 10SM CLR 03/00 A3030 RMK AO2 SLP270 T00280000
KMSV 180956Z AUTO 00000KT 10SM CLR 03/00 A3028 RMK AO2 SLP261 T00330000
KMSV 180856Z AUTO 28004KT 10SM CLR 02/00 A3027 RMK AO2 SLP258 T00220000 53002 FZRANO
KMSV 180756Z AUTO 00000KT 10SM CLR 02/01 A3026 RMK AO2 SLP253 T00220006 FZRANO
KMSV 180656Z AUTO 00000KT 10SM CLR 02/00 A3026 RMK AO2 SLP254 T00170000 FZRANO
KMSV 180556Z AUTO 00000KT 10SM CLR 02/00 A3026 RMK AO2 SLP256 T00220000 10083 20022 58001 FZRANO
KMSV 180456Z AUTO 00000KT 10SM CLR 04/00 A3027 RMK AO2 SLP258 T00390000 401331022
KMSV 180356Z AUTO 00000KT 10SM CLR 04/M01 A3027 RMK AO2 SLP259 T00441006
KMSV 180256Z AUTO 00000KT 10SM CLR 05/M01 A3027 RMK AO2 SLP258 T00501006 51008
KMSV 180156Z AUTO 00000KT 10SM CLR 06/00 A3026 RMK AO2 SLP257 T00560000
KMSV 180056Z AUTO 25003KT 10SM CLR 08/M01 A3025 RMK AO2 SLP254 T00781006